Time;durP1;ratioP1;P1;durP2;ratioP2;P2;SDS_P1;SDS_P2;PMS_P1;PMS_P2;Temp;Humidity;BMP_temperature;BMP_pressure;BME280_temperature;BME280_humidity;BME280_pressure;Samples;Min_cycle;Max_cycle;Signal;HPM_P1;HPM_P2
2022/09/15 00:01:40;;;;;;;6.18;3.97;;;16.50;99.90;;;;;;5074174;28;20285;-66
2022/09/15 00:04:09;;;;;;;5.70;3.28;;;16.50;99.90;;;;;;5073991;28;20191;-67
2022/09/15 00:06:38;;;;;;;7.55;3.13;;;16.50;99.90;;;;;;5073839;28;20219;-67
2022/09/15 00:09:07;;;;;;;8.13;3.75;;;16.50;99.90;;;;;;5073735;28;20214;-67
2022/09/15 00:11:37;;;;;;;6.55;3.38;;;16.50;99.90;;;;;;5074118;28;20195;-67
2022/09/15 00:14:08;;;;;;;4.85;3.40;;;16.50;99.90;;;;;;5073534;28;20206;-66
2022/09/15 00:16:37;;;;;;;6.75;3.35;;;16.50;99.90;;;;;;5073736;28;20187;-67
2022/09/15 00:19:06;;;;;;;6.45;3.55;;;16.50;99.90;;;;;;5073758;28;20223;-65
2022/09/15 00:21:37;;;;;;;6.60;3.63;;;16.50;99.90;;;;;;5073337;28;20199;-66
2022/09/15 00:24:06;;;;;;;8.05;3.28;;;16.50;99.90;;;;;;5073539;28;20183;-66
2022/09/15 00:26:36;;;;;;;3.90;3.50;;;16.50;99.90;;;;;;5073337;28;20218;-67
2022/09/15 00:29:05;;;;;;;5.20;3.60;;;16.50;99.90;;;;;;5073704;28;20222;-65
2022/09/15 00:31:35;;;;;;;7.63;3.63;;;16.50;99.90;;;;;;5073511;28;20195;-66
2022/09/15 00:34:05;;;;;;;5.95;3.30;;;16.50;99.90;;;;;;5073338;28;20214;-67
2022/09/15 00:36:34;;;;;;;4.80;3.33;;;16.50;99.90;;;;;;5073352;28;20546;-67
2022/09/15 00:39:04;;;;;;;4.78;3.38;;;16.60;99.90;;;;;;5073119;28;20219;-66
2022/09/15 00:41:32;;;;;;;8.05;3.50;;;16.60;99.90;;;;;;5073315;28;20187;-67
2022/09/15 00:44:04;;;;;;;5.95;3.00;;;16.60;99.90;;;;;;5073213;28;20649;-66
2022/09/15 00:46:35;;;;;;;4.88;2.92;;;16.60;99.90;;;;;;5073602;28;20563;-66
2022/09/15 00:49:09;;;;;;;5.78;3.58;;;16.60;99.90;;;;;;5073204;28;21098;-65
2022/09/15 00:51:43;;;;;;;5.05;3.30;;;16.50;99.90;;;;;;5073067;28;20198;-66
2022/09/15 00:54:17;;;;;;;6.13;3.30;;;16.50;99.90;;;;;;5073017;28;20187;-66
2022/09/15 00:56:49;;;;;;;6.32;3.03;;;16.50;99.90;;;;;;5072913;28;20194;-66
2022/09/15 00:59:21;;;;;;;8.55;3.28;;;16.50;99.90;;;;;;5072723;28;20579;-66
2022/09/15 01:01:58;;;;;;;6.60;3.33;;;16.60;99.90;;;;;;5073342;28;20214;-67
2022/09/15 01:04:27;;;;;;;6.35;3.30;;;16.60;99.90;;;;;;5071940;28;20637;-67
2022/09/15 01:06:59;;;;;;;8.57;3.65;;;16.60;99.90;;;;;;5072684;28;20787;-65
2022/09/15 01:09:31;;;;;;;5.38;3.15;;;16.60;99.90;;;;;;5072652;28;20221;-65
2022/09/15 01:12:01;;;;;;;5.05;3.40;;;16.60;99.90;;;;;;5072809;28;20518;-66
2022/09/15 01:14:29;;;;;;;10.95;3.42;;;16.60;99.90;;;;;;5072473;28;20198;-65
2022/09/15 01:17:05;;;;;;;7.60;3.85;;;16.60;99.90;;;;;;5072521;28;20191;-66
2022/09/15 01:19:58;;;;;;;4.38;3.35;;;16.60;99.90;;;;;;5073045;28;20546;-67
2022/09/15 01:22:36;;;;;;;5.93;3.33;;;16.60;99.90;;;;;;5072402;28;20261;-65
2022/09/15 01:25:10;;;;;;;5.90;3.15;;;16.60;99.90;;;;;;5072458;28;20222;-68
2022/09/15 01:28:11;;;;;;;7.20;3.78;;;16.60;99.90;;;;;;5072048;28;20231;-66
2022/09/15 01:30:47;;;;;;;5.30;3.38;;;16.60;99.90;;;;;;5072665;28;20213;-66
2022/09/15 01:33:25;;;;;;;7.13;3.28;;;16.60;99.90;;;;;;5092808;28;20213;-67
2022/09/15 01:36:04;;;;;;;4.03;3.08;;;16.60;99.90;;;;;;5091921;28;20543;-65
2022/09/15 01:38:41;;;;;;;5.15;3.20;;;16.60;99.90;;;;;;5092980;28;20218;-66
2022/09/15 01:41:15;;;;;;;5.38;3.42;;;16.60;99.90;;;;;;5092645;28;20209;-66
2022/09/15 01:43:50;;;;;;;4.25;3.80;;;16.60;99.90;;;;;;5084129;28;20669;-65
2022/09/15 01:46:26;;;;;;;5.90;3.50;;;16.50;99.90;;;;;;5072600;28;20195;-66
2022/09/15 01:48:56;;;;;;;6.72;3.53;;;16.50;99.90;;;;;;5072535;28;20247;-67
2022/09/15 01:51:28;;;;;;;6.68;4.00;;;16.60;99.90;;;;;;5072211;28;20210;-66
2022/09/15 01:53:59;;;;;;;7.22;3.63;;;16.60;99.90;;;;;;5072467;28;20218;-67
2022/09/15 01:56:28;;;;;;;6.05;3.78;;;16.60;99.90;;;;;;5072293;28;20203;-66
2022/09/15 01:58:57;;;;;;;4.78;3.63;;;16.50;99.90;;;;;;5072373;28;20238;-66
2022/09/15 02:01:40;;;;;;;7.85;3.47;;;16.50;99.90;;;;;;5072151;28;20684;-65
2022/09/15 02:04:14;;;;;;;4.78;3.47;;;16.50;99.90;;;;;;5072474;28;20545;-66
2022/09/15 02:06:52;;;;;;;8.15;4.55;;;16.60;99.90;;;;;;5071957;28;20199;-66
2022/09/15 02:09:25;;;;;;;5.22;3.88;;;16.50;99.90;;;;;;5072377;28;20222;-66
2022/09/15 02:12:01;;;;;;;6.50;3.65;;;16.50;99.90;;;;;;5092532;28;20549;-66
2022/09/15 02:14:41;;;;;;;6.53;3.90;;;16.50;99.90;;;;;;5092107;28;20569;-65
2022/09/15 02:17:16;;;;;;;8.25;4.38;;;16.50;99.90;;;;;;5095690;28;20236;-66
2022/09/15 02:19:49;;;;;;;6.20;4.00;;;16.60;99.90;;;;;;5092006;28;20865;-67
2022/09/15 02:22:23;;;;;;;4.80;3.60;;;16.50;99.90;;;;;;5076427;28;20207;-66
2022/09/15 02:24:57;;;;;;;7.30;4.50;;;16.50;99.90;;;;;;5076141;28;20203;-66
2022/09/15 02:27:30;;;;;;;5.38;4.10;;;16.50;99.90;;;;;;5080340;28;20226;-69
2022/09/15 02:30:04;;;;;;;5.80;4.20;;;16.50;99.90;;;;;;5075666;28;20203;-66
2022/09/15 02:32:39;;;;;;;6.60;4.35;;;16.50;99.90;;;;;;5082477;28;20198;-66
2022/09/15 02:35:10;;;;;;;6.20;4.50;;;16.50;99.90;;;;;;5075556;28;20205;-65
2022/09/15 02:37:39;;;;;;;6.85;4.90;;;16.50;99.90;;;;;;5075769;28;20226;-66
2022/09/15 02:40:09;;;;;;;7.68;5.10;;;16.50;99.90;;;;;;5075409;28;20203;-68
2022/09/15 02:42:38;;;;;;;11.48;5.75;;;16.60;99.90;;;;;;5075315;28;20206;-66
2022/09/15 02:45:07;;;;;;;15.27;6.20;;;16.60;99.90;;;;;;5075921;28;20203;-66
2022/09/15 02:47:37;;;;;;;12.77;6.90;;;16.60;99.90;;;;;;5075357;28;20238;-66
2022/09/15 02:50:07;;;;;;;9.82;5.72;;;16.60;99.90;;;;;;5075221;28;20207;-65
2022/09/15 02:52:36;;;;;;;15.68;6.60;;;16.60;99.90;;;;;;5074622;28;20234;-68
2022/09/15 02:55:05;;;;;;;10.50;6.43;;;16.60;99.90;;;;;;5075082;28;20658;-66
2022/09/15 02:57:34;;;;;;;11.60;6.68;;;16.60;99.90;;;;;;5075410;28;20222;-65
2022/09/15 03:00:13;;;;;;;11.18;6.72;;;16.60;99.90;;;;;;5074983;28;20210;-67
2022/09/15 03:02:45;;;;;;;13.05;6.25;;;16.60;99.90;;;;;;5074652;28;20206;-66
2022/09/15 03:05:16;;;;;;;12.02;5.97;;;16.60;99.90;;;;;;5074933;28;20578;-66
2022/09/15 03:07:45;;;;;;;13.73;6.35;;;16.60;99.90;;;;;;5074774;28;20726;-68
2022/09/15 03:10:14;;;;;;;8.27;5.65;;;16.60;99.90;;;;;;5075154;28;20211;-67
2022/09/15 03:12:47;;;;;;;9.48;5.95;;;16.60;99.90;;;;;;5074901;28;20206;-66
2022/09/15 03:15:17;;;;;;;7.80;4.53;;;16.60;99.90;;;;;;5075167;28;20203;-70
2022/09/15 03:17:48;;;;;;;5.45;4.63;;;16.60;99.90;;;;;;5075137;28;20739;-67
2022/09/15 03:20:19;;;;;;;8.02;4.22;;;16.60;99.90;;;;;;5074561;28;20207;-67
2022/09/15 03:22:48;;;;;;;5.28;3.28;;;16.70;99.90;;;;;;5074712;28;20207;-64
2022/09/15 03:25:17;;;;;;;5.80;3.42;;;16.70;99.90;;;;;;5074574;28;20202;-65
2022/09/15 03:27:47;;;;;;;4.13;2.83;;;16.60;99.90;;;;;;5073648;28;20222;-67
2022/09/15 03:30:16;;;;;;;3.75;2.67;;;16.60;99.90;;;;;;5074561;28;20744;-65
2022/09/15 03:32:47;;;;;;;3.33;2.72;;;16.60;99.90;;;;;;5073776;28;20204;-67
2022/09/15 03:35:16;;;;;;;3.53;2.70;;;16.60;99.90;;;;;;5074711;28;20712;-66
2022/09/15 03:37:44;;;;;;;2.95;2.45;;;16.60;99.90;;;;;;5074349;28;20207;-66
2022/09/15 03:40:13;;;;;;;4.32;2.63;;;16.60;99.90;;;;;;5074720;28;20195;-66
2022/09/15 03:42:42;;;;;;;4.38;2.70;;;16.60;99.90;;;;;;5074274;28;20206;-66
2022/09/15 03:45:11;;;;;;;4.32;2.67;;;16.60;99.90;;;;;;5074375;28;20261;-65
2022/09/15 03:47:39;;;;;;;3.95;2.38;;;16.70;99.90;;;;;;5074245;28;20238;-65
2022/09/15 03:50:09;;;;;;;5.53;2.28;;;16.70;99.90;;;;;;5073965;28;20238;-65
2022/09/15 03:52:38;;;;;;;4.78;2.42;;;16.60;99.90;;;;;;5074756;28;20215;-66
2022/09/15 03:55:07;;;;;;;3.88;2.20;;;16.70;99.90;;;;;;5074295;28;20211;-66
2022/09/15 03:57:36;;;;;;;3.00;2.20;;;16.70;99.90;;;;;;5073955;28;20222;-67
2022/09/15 04:00:07;;;;;;;5.22;2.53;;;16.60;99.90;;;;;;5072972;28;20207;-66
2022/09/15 04:02:35;;;;;;;5.07;2.42;;;16.70;99.90;;;;;;5074047;28;20198;-66
2022/09/15 04:05:04;;;;;;;4.25;2.38;;;16.70;99.90;;;;;;5074043;28;20195;-66
2022/09/15 04:07:35;;;;;;;5.18;2.58;;;16.70;99.90;;;;;;5073930;28;20226;-66
2022/09/15 04:10:04;;;;;;;4.95;2.50;;;16.70;99.90;;;;;;5074377;28;20231;-65
2022/09/15 04:12:33;;;;;;;2.83;2.30;;;16.70;99.90;;;;;;5073827;28;20195;-66
2022/09/15 04:15:02;;;;;;;3.38;2.80;;;16.70;99.90;;;;;;5073828;28;20650;-65
2022/09/15 04:17:31;;;;;;;3.47;2.50;;;16.70;99.90;;;;;;5073651;28;20215;-66
2022/09/15 04:20:00;;;;;;;6.70;2.67;;;16.70;99.90;;;;;;5073588;28;20198;-66
2022/09/15 04:22:30;;;;;;;3.10;2.60;;;16.60;99.90;;;;;;5073408;28;20203;-66
2022/09/15 04:25:00;;;;;;;5.43;2.90;;;16.60;99.90;;;;;;5073569;28;20187;-65
2022/09/15 04:27:33;;;;;;;3.88;2.72;;;16.60;99.90;;;;;;5074000;28;20233;-67
2022/09/15 04:30:01;;;;;;;6.07;2.67;;;16.60;99.90;;;;;;5073483;28;20712;-66
2022/09/15 04:32:31;;;;;;;3.10;2.80;;;16.60;99.90;;;;;;5072739;28;20199;-66
2022/09/15 04:34:59;;;;;;;6.05;2.88;;;16.60;99.90;;;;;;5073209;28;20199;-65
2022/09/15 04:37:28;;;;;;;3.85;3.00;;;16.60;99.90;;;;;;5072954;28;20219;-65
2022/09/15 04:39:57;;;;;;;4.47;3.08;;;16.60;99.90;;;;;;5073038;28;20210;-67
2022/09/15 04:42:27;;;;;;;5.22;2.97;;;16.60;99.90;;;;;;5073669;28;20195;-66
2022/09/15 04:44:56;;;;;;;5.18;2.90;;;16.60;99.90;;;;;;5073224;28;20199;-66
2022/09/15 04:47:24;;;;;;;7.03;3.17;;;16.60;99.90;;;;;;5073123;28;20210;-66
2022/09/15 04:49:53;;;;;;;6.15;3.15;;;16.60;99.90;;;;;;5073035;28;20226;-67
2022/09/15 04:52:22;;;;;;;5.45;3.20;;;16.60;99.90;;;;;;5073015;28;20191;-65
2022/09/15 04:54:51;;;;;;;8.02;3.50;;;16.50;99.90;;;;;;5072944;28;20203;-66
2022/09/15 04:57:19;;;;;;;3.30;2.80;;;16.60;99.90;;;;;;5072765;28;20198;-65
2022/09/15 04:59:49;;;;;;;5.20;3.00;;;16.60;99.90;;;;;;5073298;28;20702;-68
2022/09/15 05:02:18;;;;;;;5.20;3.15;;;16.60;99.90;;;;;;5072687;28;20217;-65
2022/09/15 05:04:48;;;;;;;4.20;2.83;;;16.60;99.90;;;;;;5072854;28;20210;-64
2022/09/15 05:07:16;;;;;;;6.00;3.00;;;16.50;99.90;;;;;;5072724;28;20672;-65
2022/09/15 05:09:45;;;;;;;4.60;2.75;;;16.50;99.90;;;;;;5072672;28;20375;-65
2022/09/15 05:12:14;;;;;;;5.05;3.35;;;16.50;99.90;;;;;;5072690;28;20206;-65
2022/09/15 05:14:42;;;;;;;5.22;2.88;;;16.50;99.90;;;;;;5072730;28;20199;-66
2022/09/15 05:17:12;;;;;;;5.72;3.20;;;16.50;99.90;;;;;;5073011;28;20195;-65
2022/09/15 05:19:41;;;;;;;4.28;2.92;;;16.50;99.90;;;;;;5072878;28;20195;-66
2022/09/15 05:22:10;;;;;;;5.65;3.15;;;16.50;99.90;;;;;;5072435;28;20210;-65
2022/09/15 05:24:38;;;;;;;4.15;3.30;;;16.50;99.90;;;;;;5072601;28;20199;-65
2022/09/15 05:27:07;;;;;;;4.30;3.15;;;16.50;99.90;;;;;;5073423;28;20206;-66
2022/09/15 05:29:36;;;;;;;7.25;3.58;;;16.50;99.90;;;;;;5092995;28;20225;-66
2022/09/15 05:32:04;;;;;;;4.47;3.15;;;16.50;99.90;;;;;;5085819;28;20187;-67
2022/09/15 05:34:34;;;;;;;4.65;3.28;;;16.50;99.90;;;;;;5072634;28;20199;-67
2022/09/15 05:37:04;;;;;;;4.47;3.25;;;16.50;99.90;;;;;;5072620;28;20183;-66
2022/09/15 05:39:32;;;;;;;6.35;3.30;;;16.50;99.90;;;;;;5089778;28;20198;-67
2022/09/15 05:42:01;;;;;;;5.50;3.10;;;16.50;99.90;;;;;;5092526;28;20565;-66
2022/09/15 05:44:30;;;;;;;4.50;3.25;;;16.50;99.90;;;;;;5092507;28;20665;-66
2022/09/15 05:46:59;;;;;;;7.05;3.08;;;16.50;99.90;;;;;;5092423;28;20202;-65
2022/09/15 05:49:28;;;;;;;5.97;3.38;;;16.60;99.90;;;;;;5092461;28;20241;-65
2022/09/15 05:51:58;;;;;;;7.60;2.90;;;16.60;99.90;;;;;;5090799;28;20198;-65
2022/09/15 05:54:27;;;;;;;9.75;3.00;;;16.60;99.90;;;;;;5092677;28;20194;-68
2022/09/15 05:56:55;;;;;;;5.38;3.60;;;16.70;99.90;;;;;;5092472;28;20194;-65
2022/09/15 05:59:24;;;;;;;4.30;3.60;;;16.60;99.90;;;;;;5092329;28;20206;-66
2022/09/15 06:01:53;;;;;;;8.25;3.70;;;16.60;99.90;;;;;;5092272;28;20190;-66
2022/09/15 06:04:22;;;;;;;8.75;3.25;;;16.60;99.90;;;;;;5092359;28;20193;-66
2022/09/15 06:06:50;;;;;;;8.93;3.97;;;16.60;99.90;;;;;;5092287;28;20205;-65
2022/09/15 06:09:20;;;;;;;7.22;4.00;;;16.60;99.90;;;;;;5091200;28;20225;-65
2022/09/15 06:11:49;;;;;;;5.50;3.75;;;16.60;99.90;;;;;;5092544;28;20202;-63
2022/09/15 06:14:17;;;;;;;7.78;4.22;;;16.60;99.90;;;;;;5092211;28;20202;-64
2022/09/15 06:16:46;;;;;;;7.82;4.82;;;16.60;99.90;;;;;;5092207;28;20191;-64
2022/09/15 06:19:15;;;;;;;7.95;4.63;;;16.60;99.90;;;;;;5092130;28;20214;-66
2022/09/15 06:21:43;;;;;;;8.93;5.00;;;16.60;99.90;;;;;;5092138;28;20225;-65
2022/09/15 06:24:12;;;;;;;9.57;5.40;;;16.60;99.90;;;;;;5092211;28;20588;-65
2022/09/15 06:26:42;;;;;;;8.52;6.55;;;16.50;99.90;;;;;;5083916;28;20202;-67
2022/09/15 06:29:12;;;;;;;10.48;6.30;;;16.60;99.90;;;;;;5071308;28;20219;-66
2022/09/15 06:31:41;;;;;;;7.07;6.35;;;16.60;99.90;;;;;;5070850;28;20234;-66
2022/09/15 06:34:10;;;;;;;6.95;5.60;;;16.60;99.90;;;;;;5071774;28;20270;-67
2022/09/15 06:36:39;;;;;;;7.40;6.20;;;16.60;99.90;;;;;;5071838;28;20580;-65
2022/09/15 06:39:08;;;;;;;8.82;5.93;;;16.60;99.90;;;;;;5071608;28;20231;-64
2022/09/15 06:41:37;;;;;;;10.40;6.38;;;16.60;99.90;;;;;;5072248;28;20207;-67
2022/09/15 06:44:30;;;;;;;6.97;5.40;;;16.60;99.90;;;;;;5070558;28;20650;-66
2022/09/15 06:46:59;;;;;;;6.68;5.68;;;16.70;99.90;;;;;;5071725;28;20191;-66
2022/09/15 06:49:27;;;;;;;9.05;5.22;;;16.70;99.90;;;;;;5071494;28;20604;-67
2022/09/15 06:51:56;;;;;;;7.20;5.07;;;16.60;99.90;;;;;;5071655;28;20228;-65
2022/09/15 06:54:25;;;;;;;4.50;3.35;;;16.60;99.90;;;;;;5071707;28;20235;-65
2022/09/15 06:56:53;;;;;;;2.65;2.28;;;16.60;99.90;;;;;;5071668;28;20657;-66
2022/09/15 06:59:23;;;;;;;1.75;1.50;;;16.60;99.90;;;;;;5071920;28;20309;-66
2022/09/15 07:01:54;;;;;;;2.75;1.10;;;16.50;99.90;;;;;;5071591;28;20202;-65
2022/09/15 07:04:23;;;;;;;2.08;1.00;;;16.50;99.90;;;;;;5074788;28;20569;-66
2022/09/15 07:06:51;;;;;;;2.17;0.90;;;16.40;99.90;;;;;;5075163;28;20194;-65
2022/09/15 07:09:20;;;;;;;0.75;0.75;;;16.40;99.90;;;;;;5074942;28;20210;-65
2022/09/15 07:11:48;;;;;;;0.60;0.60;;;16.40;99.90;;;;;;5074915;28;20249;-66
2022/09/15 07:14:17;;;;;;;4.43;0.98;;;16.40;99.90;;;;;;5074916;28;20575;-64
2022/09/15 07:16:46;;;;;;;1.52;0.77;;;16.40;99.90;;;;;;5075320;28;20202;-66
2022/09/15 07:19:16;;;;;;;0.65;0.65;;;16.50;99.90;;;;;;5074780;28;20211;-66
2022/09/15 07:21:44;;;;;;;0.90;0.80;;;16.40;99.90;;;;;;5074715;28;20192;-65
2022/09/15 07:24:13;;;;;;;0.65;0.65;;;16.40;99.90;;;;;;5075100;28;20211;-66
2022/09/15 07:26:42;;;;;;;0.90;0.73;;;16.40;99.90;;;;;;5074556;28;20202;-65
2022/09/15 07:29:11;;;;;;;0.60;0.60;;;16.50;99.90;;;;;;5074557;28;20211;-66
2022/09/15 07:31:39;;;;;;;0.70;0.60;;;16.50;99.90;;;;;;5073809;28;20226;-64
2022/09/15 07:34:08;;;;;;;0.60;0.60;;;16.50;99.90;;;;;;5074712;28;20198;-66
2022/09/15 07:36:38;;;;;;;1.55;0.63;;;16.50;99.90;;;;;;5074619;28;20187;-65
2022/09/15 07:39:07;;;;;;;0.50;0.40;;;16.50;99.90;;;;;;5074625;28;20764;-67
2022/09/15 07:41:36;;;;;;;0.50;0.50;;;16.50;99.90;;;;;;5074428;28;20195;-66
2022/09/15 07:44:07;;;;;;;0.80;0.55;;;16.50;99.90;;;;;;5074390;28;20199;-67
2022/09/15 07:46:36;;;;;;;0.70;0.50;;;16.50;99.90;;;;;;5074462;28;20194;-66
2022/09/15 07:49:07;;;;;;;1.90;0.50;;;16.50;99.90;;;;;;5074318;28;20642;-67
2022/09/15 07:51:35;;;;;;;0.47;0.43;;;16.50;99.90;;;;;;5074545;28;20226;-64
2022/09/15 07:54:06;;;;;;;0.60;0.50;;;16.50;99.90;;;;;;5074279;28;20564;-66
2022/09/15 07:56:34;;;;;;;0.60;0.50;;;16.60;99.90;;;;;;5074183;28;20196;-66
2022/09/15 07:59:03;;;;;;;1.70;0.60;;;16.60;99.90;;;;;;5074104;28;20214;-66
2022/09/15 08:01:31;;;;;;;1.23;0.50;;;16.60;99.90;;;;;;5074025;28;20266;-66
2022/09/15 08:04:00;;;;;;;0.38;0.32;;;16.70;99.90;;;;;;5073971;28;20681;-64
2022/09/15 08:06:29;;;;;;;0.90;0.50;;;16.60;99.90;;;;;;5074389;28;20642;-67
2022/09/15 08:08:57;;;;;;;0.88;0.50;;;16.70;99.90;;;;;;5073840;28;20697;-67
2022/09/15 08:11:29;;;;;;;0.40;0.40;;;16.70;99.90;;;;;;5073720;28;20227;-67
2022/09/15 08:14:01;;;;;;;0.60;0.47;;;16.70;99.90;;;;;;5073353;28;20198;-68
2022/09/15 08:16:30;;;;;;;1.70;0.40;;;16.70;99.90;;;;;;5073803;28;20194;-66
2022/09/15 08:18:59;;;;;;;1.38;0.30;;;16.70;99.90;;;;;;5073658;28;20221;-66
2022/09/15 08:21:28;;;;;;;0.43;0.35;;;16.70;99.90;;;;;;5073441;28;20203;-68
2022/09/15 08:23:58;;;;;;;0.68;0.50;;;16.70;99.90;;;;;;5074031;28;20202;-66
2022/09/15 08:26:29;;;;;;;0.63;0.43;;;16.80;99.90;;;;;;5073469;28;20575;-68
2022/09/15 08:28:59;;;;;;;0.65;0.50;;;16.80;99.90;;;;;;5082644;28;20214;-68
2022/09/15 08:31:28;;;;;;;6.30;0.98;;;16.80;99.90;;;;;;5090489;28;20241;-64
2022/09/15 08:33:57;;;;;;;2.35;1.38;;;16.80;99.90;;;;;;5073171;28;20202;-66
2022/09/15 08:36:26;;;;;;;1.20;0.68;;;16.80;99.90;;;;;;5073376;28;20183;-65
2022/09/15 08:38:56;;;;;;;1.52;0.90;;;16.80;99.90;;;;;;5073121;28;20222;-65
2022/09/15 08:41:29;;;;;;;1.52;0.90;;;16.80;99.90;;;;;;5073675;28;20696;-65
2022/09/15 08:44:04;;;;;;;6.35;2.60;;;16.70;99.90;;;;;;5073263;28;20198;-65
2022/09/15 08:46:39;;;;;;;1.15;0.90;;;16.70;99.90;;;;;;5073179;28;20187;-65
2022/09/15 08:49:13;;;;;;;1.05;0.65;;;16.70;99.90;;;;;;5073189;28;20221;-66
2022/09/15 08:51:46;;;;;;;1.67;1.08;;;16.60;99.90;;;;;;5072847;28;20206;-67
2022/09/15 08:54:20;;;;;;;1.30;1.10;;;16.60;99.90;;;;;;5073020;28;20191;-66
2022/09/15 08:56:49;;;;;;;1.48;0.65;;;16.50;99.90;;;;;;5073030;28;20660;-67
2022/09/15 08:59:20;;;;;;;1.95;0.60;;;16.50;99.90;;;;;;5073278;28;20207;-66
2022/09/15 09:02:02;;;;;;;0.88;0.60;;;16.50;99.90;;;;;;5073173;28;20207;-69
2022/09/15 09:04:48;;;;;;;0.40;0.40;;;16.50;99.90;;;;;;5072822;28;20191;-67
2022/09/15 09:07:29;;;;;;;0.60;0.52;;;16.50;99.90;;;;;;5072759;28;20184;-67
2022/09/15 09:10:05;;;;;;;0.65;0.50;;;16.40;99.90;;;;;;5072824;28;20194;-66
2022/09/15 09:12:49;;;;;;;2.67;0.70;;;16.40;99.90;;;;;;5072644;28;20211;-65
2022/09/15 09:15:42;;;;;;;0.57;0.57;;;16.30;99.90;;;;;;5073151;28;20217;-69
2022/09/15 09:18:28;;;;;;;0.63;0.63;;;16.30;99.90;;;;;;5072573;28;20211;-66
2022/09/15 09:21:03;;;;;;;0.90;0.73;;;16.30;99.90;;;;;;5072687;28;20191;-67
2022/09/15 09:23:35;;;;;;;1.55;0.50;;;16.30;99.90;;;;;;5072574;28;20198;-66
2022/09/15 09:26:04;;;;;;;0.95;0.80;;;16.30;99.90;;;;;;5071680;28;20191;-66
2022/09/15 09:28:41;;;;;;;1.65;0.77;;;16.30;99.90;;;;;;5072540;28;20218;-66
2022/09/15 09:31:18;;;;;;;3.15;1.95;;;16.30;99.90;;;;;;5071901;28;20250;-68
2022/09/15 09:33:53;;;;;;;4.13;2.13;;;16.30;99.90;;;;;;5072067;28;20222;-66
2022/09/15 09:36:22;;;;;;;1.40;1.05;;;16.30;99.90;;;;;;5072468;28;20179;-66
2022/09/15 09:38:51;;;;;;;1.50;1.00;;;16.40;99.90;;;;;;5072102;28;20219;-66
2022/09/15 09:41:24;;;;;;;0.70;0.65;;;16.40;99.90;;;;;;5072421;28;20195;-67
2022/09/15 09:43:55;;;;;;;1.00;0.60;;;16.40;99.90;;;;;;5072325;28;20684;-66
2022/09/15 09:46:25;;;;;;;0.70;0.52;;;16.30;99.90;;;;;;5072384;28;20191;-66
2022/09/15 09:49:00;;;;;;;1.10;0.80;;;16.30;99.90;;;;;;5072042;28;20316;-67
2022/09/15 09:51:31;;;;;;;1.80;0.65;;;16.40;99.90;;;;;;5072156;28;20206;-66
2022/09/15 09:54:14;;;;;;;0.60;0.60;;;16.30;99.90;;;;;;5072200;28;20238;-66
2022/09/15 09:56:44;;;;;;;1.50;0.57;;;16.30;99.90;;;;;;5072349;28;20190;-65
2022/09/15 09:59:38;;;;;;;1.65;0.70;;;16.30;99.90;;;;;;5072102;28;20211;-66
2022/09/15 10:02:17;;;;;;;0.77;0.70;;;16.30;99.90;;;;;;5070893;28;20199;-67
2022/09/15 10:04:47;;;;;;;1.35;1.00;;;16.30;99.90;;;;;;5072227;28;20187;-66
2022/09/15 10:07:18;;;;;;;2.17;0.68;;;16.20;99.90;;;;;;5071881;28;20206;-66
2022/09/15 10:09:53;;;;;;;2.20;1.20;;;16.20;99.90;;;;;;5072190;28;20585;-67
2022/09/15 10:12:25;;;;;;;5.18;2.42;;;16.20;99.90;;;;;;5072084;28;20190;-67
2022/09/15 10:14:56;;;;;;;4.10;1.38;;;16.20;99.90;;;;;;5072051;28;20194;-66
2022/09/15 10:17:38;;;;;;;6.53;3.25;;;16.10;99.90;;;;;;5072022;28;20226;-66
2022/09/15 10:20:23;;;;;;;4.57;2.00;;;16.10;99.90;;;;;;5071972;28;20183;-67
2022/09/15 10:22:52;;;;;;;3.53;1.45;;;16.10;99.90;;;;;;5071662;28;20207;-66
2022/09/15 10:25:33;;;;;;;4.13;1.30;;;16.00;99.90;;;;;;5071956;28;20209;-66
2022/09/15 10:28:24;;;;;;;1.42;1.33;;;16.00;99.90;;;;;;5071896;28;20626;-65
2022/09/15 10:31:02;;;;;;;1.83;1.40;;;16.00;99.90;;;;;;5071927;28;20194;-67
2022/09/15 10:33:34;;;;;;;3.13;1.42;;;16.00;99.90;;;;;;5076739;28;20218;-64
2022/09/15 10:36:06;;;;;;;1.65;1.40;;;16.00;99.90;;;;;;5091206;28;20186;-65
2022/09/15 10:38:40;;;;;;;1.58;1.48;;;16.00;99.90;;;;;;5075344;28;20222;-67
2022/09/15 10:41:20;;;;;;;3.33;1.73;;;16.00;99.90;;;;;;5077658;28;20210;-66
2022/09/15 10:44:22;;;;;;;2.25;2.00;;;16.00;99.90;;;;;;5075576;28;20190;-66
2022/09/15 10:47:02;;;;;;;5.93;2.80;;;16.00;99.90;;;;;;5075446;28;20194;-65
2022/09/15 10:49:48;;;;;;;3.70;2.30;;;16.00;99.90;;;;;;5075145;28;20203;-65
2022/09/15 10:52:26;;;;;;;6.55;2.60;;;16.00;99.90;;;;;;5075447;28;20180;-67
2022/09/15 10:55:09;;;;;;;4.75;2.83;;;16.00;99.90;;;;;;5075314;28;20210;-67
2022/09/15 10:57:53;;;;;;;4.43;2.95;;;15.90;99.90;;;;;;5075611;28;20234;-66
2022/09/15 11:00:23;;;;;;;3.92;2.78;;;15.90;99.90;;;;;;5075200;28;20642;-67
2022/09/15 11:03:25;;;;;;;4.07;3.30;;;15.90;99.90;;;;;;5075236;28;20560;-68
2022/09/15 11:06:06;;;;;;;6.50;3.22;;;15.90;99.90;;;;;;5075185;28;20187;-67
2022/09/15 11:09:03;;;;;;;7.88;3.47;;;15.90;99.90;;;;;;5075061;28;20225;-66
2022/09/15 11:11:42;;;;;;;6.22;3.55;;;15.90;99.90;;;;;;5075087;28;20191;-66
2022/09/15 11:14:29;;;;;;;5.13;3.67;;;15.90;99.90;;;;;;5077880;28;20229;-66
2022/09/15 11:17:09;;;;;;;5.93;3.70;;;15.90;99.90;;;;;;5074961;28;20194;-65
2022/09/15 11:19:54;;;;;;;4.85;4.20;;;15.90;99.90;;;;;;5077745;28;20202;-65
2022/09/15 11:22:29;;;;;;;7.53;4.82;;;15.90;99.90;;;;;;5074769;28;20199;-66
2022/09/15 11:25:01;;;;;;;7.03;4.20;;;15.90;99.90;;;;;;5077723;28;20194;-66
2022/09/15 11:27:35;;;;;;;8.05;4.03;;;15.90;99.90;;;;;;5074524;28;20234;-66
2022/09/15 11:30:07;;;;;;;7.72;4.47;;;15.90;99.90;;;;;;5084957;28;20202;-66
2022/09/15 11:32:41;;;;;;;9.93;4.07;;;15.90;99.90;;;;;;5075248;28;20199;-65
2022/09/15 11:35:34;;;;;;;7.63;4.35;;;15.90;99.90;;;;;;5074443;28;20221;-67
2022/09/15 11:38:21;;;;;;;7.15;4.40;;;15.90;99.90;;;;;;5074350;28;20670;-71
2022/09/15 11:40:56;;;;;;;5.65;4.50;;;15.90;99.90;;;;;;5074607;28;20301;-67
2022/09/15 11:43:32;;;;;;;7.18;3.60;;;15.80;99.90;;;;;;5074642;28;20225;-68
2022/09/15 11:46:09;;;;;;;8.48;3.55;;;15.80;99.90;;;;;;5074484;28;20206;-67
2022/09/15 11:48:44;;;;;;;6.28;3.28;;;15.70;99.90;;;;;;5073681;28;20226;-67
2022/09/15 11:51:16;;;;;;;5.55;3.58;;;15.70;99.90;;;;;;5074247;28;20199;-67
2022/09/15 11:53:51;;;;;;;4.88;3.53;;;15.70;99.90;;;;;;5074350;28;20215;-67
2022/09/15 11:56:26;;;;;;;7.22;3.50;;;15.70;99.90;;;;;;5074187;28;20187;-67
2022/09/15 11:59:04;;;;;;;8.30;3.70;;;15.70;99.90;;;;;;5074152;28;20221;-67
2022/09/15 12:01:38;;;;;;;6.05;3.05;;;15.70;99.90;;;;;;5074108;28;20556;-67
2022/09/15 12:04:12;;;;;;;5.07;2.80;;;15.70;99.90;;;;;;5074105;28;20187;-68
2022/09/15 12:06:48;;;;;;;8.85;3.80;;;15.70;99.90;;;;;;5074411;28;20195;-67
2022/09/15 12:09:20;;;;;;;4.45;2.95;;;15.60;99.90;;;;;;5073960;28;20214;-67
2022/09/15 12:11:52;;;;;;;6.97;3.03;;;15.60;99.90;;;;;;5073904;28;20661;-67
2022/09/15 12:14:28;;;;;;;5.75;3.10;;;15.60;99.90;;;;;;5073803;28;20677;-67
2022/09/15 12:16:57;;;;;;;7.07;3.17;;;15.60;99.90;;;;;;5073926;28;20194;-66
2022/09/15 12:19:49;;;;;;;5.20;2.85;;;15.60;99.90;;;;;;5073559;28;20227;-67
2022/09/15 12:22:23;;;;;;;10.05;2.90;;;15.50;99.90;;;;;;5074011;28;20221;-67
2022/09/15 12:24:59;;;;;;;3.78;2.72;;;15.40;99.90;;;;;;5073652;28;20182;-67
2022/09/15 12:27:29;;;;;;;5.68;3.28;;;15.40;99.90;;;;;;5073352;28;20218;-66
2022/09/15 12:29:59;;;;;;;7.47;3.58;;;15.40;99.90;;;;;;5073444;28;20207;-66
2022/09/15 12:32:29;;;;;;;5.93;4.05;;;15.40;99.90;;;;;;5072578;28;20569;-67
2022/09/15 12:35:01;;;;;;;8.05;3.90;;;15.40;99.90;;;;;;5073195;28;20692;-68
2022/09/15 12:37:36;;;;;;;9.30;4.63;;;15.40;99.90;;;;;;5073550;28;20223;-66
2022/09/15 12:40:24;;;;;;;6.93;3.85;;;15.50;99.90;;;;;;5073278;28;20231;-66
2022/09/15 12:42:54;;;;;;;7.82;3.92;;;15.40;99.90;;;;;;5073332;28;20286;-66
2022/09/15 12:45:26;;;;;;;9.13;4.00;;;15.40;99.90;;;;;;5073228;28;20541;-67
2022/09/15 12:47:56;;;;;;;10.13;4.20;;;15.40;99.90;;;;;;5073141;28;20246;-66
2022/09/15 12:50:33;;;;;;;10.10;4.40;;;15.40;99.90;;;;;;5072939;28;20199;-68
2022/09/15 12:53:11;;;;;;;8.60;3.95;;;15.40;99.90;;;;;;5073105;28;20198;-67
2022/09/15 12:55:48;;;;;;;8.75;4.32;;;15.40;99.90;;;;;;5072737;28;20858;-67
2022/09/15 12:58:20;;;;;;;11.10;4.25;;;15.50;99.90;;;;;;5072945;28;20237;-66
2022/09/15 13:00:49;;;;;;;5.97;4.25;;;15.40;99.90;;;;;;5072845;28;20206;-65
2022/09/15 13:04:12;;;;;;;7.30;4.35;;;15.50;99.90;;;;;;5073023;28;20194;-66
2022/09/15 13:07:20;;;;;;;6.50;3.83;;;15.50;99.90;;;;;;5040894;28;20207;-66
2022/09/15 13:09:57;;;;;;;9.38;4.22;;;15.50;99.90;;;;;;5072754;28;20545;-66
2022/09/15 13:12:34;;;;;;;8.25;4.13;;;15.50;99.90;;;;;;5072684;28;20187;-66
2022/09/15 13:15:06;;;;;;;8.10;3.78;;;15.50;99.90;;;;;;5072670;28;20218;-68